sensor_id;sensor_type;location;lat;lon;timestamp;P1;durP1;ratioP1;P2;durP2;ratioP2
41061;SDS011;26812;42.662;23.352;2022-08-04T00:01:45;8.82;;;6.80;;
41061;SDS011;26812;42.662;23.352;2022-08-04T00:07:25;8.80;;;7.15;;
41061;SDS011;26812;42.662;23.352;2022-08-04T00:10:20;8.23;;;5.88;;
41061;SDS011;26812;42.662;23.352;2022-08-04T00:12:47;7.30;;;6.50;;
41061;SDS011;26812;42.662;23.352;2022-08-04T00:15:15;7.47;;;6.60;;
41061;SDS011;26812;42.662;23.352;2022-08-04T00:17:46;7.13;;;6.43;;
41061;SDS011;26812;42.662;23.352;2022-08-04T00:20:18;8.48;;;7.25;;
41061;SDS011;26812;42.662;23.352;2022-08-04T00:22:45;10.77;;;8.32;;
41061;SDS011;26812;42.662;23.352;2022-08-04T00:25:12;7.13;;;5.97;;
41061;SDS011;26812;42.662;23.352;2022-08-04T00:27:37;6.55;;;6.03;;
41061;SDS011;26812;42.662;23.352;2022-08-04T00:30:03;7.05;;;5.80;;
41061;SDS011;26812;42.662;23.352;2022-08-04T00:32:30;7.15;;;4.95;;
41061;SDS011;26812;42.662;23.352;2022-08-04T00:34:57;7.15;;;6.43;;
41061;SDS011;26812;42.662;23.352;2022-08-04T00:37:23;8.48;;;6.47;;
41061;SDS011;26812;42.662;23.352;2022-08-04T00:39:50;9.82;;;6.63;;
41061;SDS011;26812;42.662;23.352;2022-08-04T00:42:33;8.55;;;5.45;;
41061;SDS011;26812;42.662;23.352;2022-08-04T00:45:27;7.55;;;6.05;;
41061;SDS011;26812;42.662;23.352;2022-08-04T00:50:41;7.25;;;5.53;;
41061;SDS011;26812;42.662;23.352;2022-08-04T00:57:08;7.50;;;5.32;;
41061;SDS011;26812;42.662;23.352;2022-08-04T00:59:14;6.40;;;5.53;;
41061;SDS011;26812;42.662;23.352;2022-08-04T01:07:30;5.68;;;5.00;;
41061;SDS011;26812;42.662;23.352;2022-08-04T01:10:09;6.40;;;4.93;;
41061;SDS011;26812;42.662;23.352;2022-08-04T01:12:57;6.53;;;5.43;;
41061;SDS011;26812;42.662;23.352;2022-08-04T01:18:23;7.80;;;5.65;;
41061;SDS011;26812;42.662;23.352;2022-08-04T01:29:19;10.98;;;6.07;;
41061;SDS011;26812;42.662;23.352;2022-08-04T01:34:29;6.10;;;5.50;;
41061;SDS011;26812;42.662;23.352;2022-08-04T01:40:05;8.27;;;5.70;;
41061;SDS011;26812;42.662;23.352;2022-08-04T01:42:32;6.10;;;5.50;;
41061;SDS011;26812;42.662;23.352;2022-08-04T01:45:04;6.38;;;5.72;;
41061;SDS011;26812;42.662;23.352;2022-08-04T01:47:33;6.82;;;5.80;;
41061;SDS011;26812;42.662;23.352;2022-08-04T01:50:04;7.78;;;5.90;;
41061;SDS011;26812;42.662;23.352;2022-08-04T01:52:30;5.80;;;5.30;;
41061;SDS011;26812;42.662;23.352;2022-08-04T01:54:57;8.20;;;5.95;;
41061;SDS011;26812;42.662;23.352;2022-08-04T01:57:25;7.72;;;5.97;;
41061;SDS011;26812;42.662;23.352;2022-08-04T01:59:52;6.15;;;5.57;;
41061;SDS011;26812;42.662;23.352;2022-08-04T02:02:21;6.95;;;5.53;;
41061;SDS011;26812;42.662;23.352;2022-08-04T02:04:48;6.18;;;5.53;;
41061;SDS011;26812;42.662;23.352;2022-08-04T02:15:35;6.13;;;5.53;;
41061;SDS011;26812;42.662;23.352;2022-08-04T02:20:37;6.82;;;6.22;;
41061;SDS011;26812;42.662;23.352;2022-08-04T02:23:04;7.32;;;6.05;;
41061;SDS011;26812;42.662;23.352;2022-08-04T02:25:42;7.40;;;5.97;;
41061;SDS011;26812;42.662;23.352;2022-08-04T02:33:22;7.47;;;6.72;;
41061;SDS011;26812;42.662;23.352;2022-08-04T02:35:55;6.68;;;5.70;;
41061;SDS011;26812;42.662;23.352;2022-08-04T02:38:25;6.57;;;5.88;;
41061;SDS011;26812;42.662;23.352;2022-08-04T02:41:04;9.55;;;6.38;;
41061;SDS011;26812;42.662;23.352;2022-08-04T02:43:31;6.97;;;6.25;;
41061;SDS011;26812;42.662;23.352;2022-08-04T02:45:59;8.10;;;6.32;;
41061;SDS011;26812;42.662;23.352;2022-08-04T02:48:27;8.13;;;5.45;;
41061;SDS011;26812;42.662;23.352;2022-08-04T02:50:56;7.22;;;6.03;;
41061;SDS011;26812;42.662;23.352;2022-08-04T02:53:23;7.47;;;6.78;;
41061;SDS011;26812;42.662;23.352;2022-08-04T02:55:51;6.05;;;5.05;;
41061;SDS011;26812;42.662;23.352;2022-08-04T02:58:19;6.25;;;5.65;;
41061;SDS011;26812;42.662;23.352;2022-08-04T03:00:45;7.45;;;6.63;;
41061;SDS011;26812;42.662;23.352;2022-08-04T03:56:48;6.90;;;6.20;;
41061;SDS011;26812;42.662;23.352;2022-08-04T04:02:15;9.10;;;6.05;;
41061;SDS011;26812;42.662;23.352;2022-08-04T04:10:51;8.23;;;6.00;;
41061;SDS011;26812;42.662;23.352;2022-08-04T04:30:04;10.90;;;6.50;;
41061;SDS011;26812;42.662;23.352;2022-08-04T04:43:48;12.27;;;8.57;;
41061;SDS011;26812;42.662;23.352;2022-08-04T04:49:24;10.45;;;8.73;;
41061;SDS011;26812;42.662;23.352;2022-08-04T04:59:49;12.88;;;8.75;;
41061;SDS011;26812;42.662;23.352;2022-08-04T05:05:27;10.88;;;8.52;;
41061;SDS011;26812;42.662;23.352;2022-08-04T05:11:09;10.63;;;9.40;;
41061;SDS011;26812;42.662;23.352;2022-08-04T05:13:49;11.48;;;10.18;;
41061;SDS011;26812;42.662;23.352;2022-08-04T05:18:57;13.10;;;9.50;;
41061;SDS011;26812;42.662;23.352;2022-08-04T05:21:46;17.00;;;10.05;;
41061;SDS011;26812;42.662;23.352;2022-08-04T05:24:14;14.57;;;9.43;;
41061;SDS011;26812;42.662;23.352;2022-08-04T05:26:45;13.15;;;9.55;;
41061;SDS011;26812;42.662;23.352;2022-08-04T05:29:17;12.38;;;9.65;;
41061;SDS011;26812;42.662;23.352;2022-08-04T05:32:06;13.07;;;9.90;;
41061;SDS011;26812;42.662;23.352;2022-08-04T05:34:41;10.48;;;8.50;;
41061;SDS011;26812;42.662;23.352;2022-08-04T05:37:11;10.27;;;8.70;;
41061;SDS011;26812;42.662;23.352;2022-08-04T05:39:41;9.98;;;8.63;;
41061;SDS011;26812;42.662;23.352;2022-08-04T05:42:13;12.50;;;8.70;;
41061;SDS011;26812;42.662;23.352;2022-08-04T05:44:39;10.55;;;8.75;;
41061;SDS011;26812;42.662;23.352;2022-08-04T05:47:07;8.75;;;7.40;;
41061;SDS011;26812;42.662;23.352;2022-08-04T05:49:36;8.73;;;7.55;;
41061;SDS011;26812;42.662;23.352;2022-08-04T05:52:03;8.50;;;7.40;;
41061;SDS011;26812;42.662;23.352;2022-08-04T05:54:31;8.07;;;6.80;;
41061;SDS011;26812;42.662;23.352;2022-08-04T05:56:58;7.65;;;6.60;;
41061;SDS011;26812;42.662;23.352;2022-08-04T05:59:25;6.82;;;6.20;;
41061;SDS011;26812;42.662;23.352;2022-08-04T06:01:54;7.63;;;6.47;;
41061;SDS011;26812;42.662;23.352;2022-08-04T06:04:22;7.18;;;6.10;;
41061;SDS011;26812;42.662;23.352;2022-08-04T06:06:52;7.82;;;6.35;;
41061;SDS011;26812;42.662;23.352;2022-08-04T06:09:19;6.35;;;5.70;;
41061;SDS011;26812;42.662;23.352;2022-08-04T06:11:44;9.50;;;6.78;;
41061;SDS011;26812;42.662;23.352;2022-08-04T06:14:10;9.45;;;6.53;;
41061;SDS011;26812;42.662;23.352;2022-08-04T06:16:39;6.20;;;5.60;;
41061;SDS011;26812;42.662;23.352;2022-08-04T06:19:08;9.57;;;5.45;;
41061;SDS011;26812;42.662;23.352;2022-08-04T06:21:36;6.60;;;6.00;;
41061;SDS011;26812;42.662;23.352;2022-08-04T06:24:03;8.45;;;6.07;;
41061;SDS011;26812;42.662;23.352;2022-08-04T06:26:34;7.53;;;6.15;;
41061;SDS011;26812;42.662;23.352;2022-08-04T06:29:00;7.93;;;5.90;;
41061;SDS011;26812;42.662;23.352;2022-08-04T06:31:27;6.03;;;5.43;;
41061;SDS011;26812;42.662;23.352;2022-08-04T06:34:07;7.80;;;6.30;;
41061;SDS011;26812;42.662;23.352;2022-08-04T06:36:36;6.38;;;5.78;;
41061;SDS011;26812;42.662;23.352;2022-08-04T06:39:05;7.00;;;6.30;;
41061;SDS011;26812;42.662;23.352;2022-08-04T06:41:32;9.90;;;6.10;;
41061;SDS011;26812;42.662;23.352;2022-08-04T06:43:59;6.35;;;5.75;;
41061;SDS011;26812;42.662;23.352;2022-08-04T06:46:30;7.40;;;6.75;;
41061;SDS011;26812;42.662;23.352;2022-08-04T06:48:56;7.95;;;5.88;;
41061;SDS011;26812;42.662;23.352;2022-08-04T06:51:22;9.85;;;5.57;;
41061;SDS011;26812;42.662;23.352;2022-08-04T06:53:49;8.23;;;6.07;;
41061;SDS011;26812;42.662;23.352;2022-08-04T06:56:15;7.28;;;6.20;;
41061;SDS011;26812;42.662;23.352;2022-08-04T06:58:49;8.35;;;6.78;;
41061;SDS011;26812;42.662;23.352;2022-08-04T07:01:18;7.55;;;6.25;;
41061;SDS011;26812;42.662;23.352;2022-08-04T07:04:19;10.70;;;7.00;;
41061;SDS011;26812;42.662;23.352;2022-08-04T07:06:45;7.30;;;6.60;;
41061;SDS011;26812;42.662;23.352;2022-08-04T07:09:10;6.65;;;5.97;;
41061;SDS011;26812;42.662;23.352;2022-08-04T07:11:36;8.32;;;7.15;;
41061;SDS011;26812;42.662;23.352;2022-08-04T07:14:02;9.85;;;6.93;;
41061;SDS011;26812;42.662;23.352;2022-08-04T07:16:29;7.40;;;6.70;;
41061;SDS011;26812;42.662;23.352;2022-08-04T07:18:56;8.35;;;6.65;;
41061;SDS011;26812;42.662;23.352;2022-08-04T07:21:22;8.25;;;7.03;;
41061;SDS011;26812;42.662;23.352;2022-08-04T07:23:48;14.27;;;6.80;;
41061;SDS011;26812;42.662;23.352;2022-08-04T07:26:14;8.15;;;6.47;;
41061;SDS011;26812;42.662;23.352;2022-08-04T07:28:41;11.20;;;8.25;;
41061;SDS011;26812;42.662;23.352;2022-08-04T07:31:08;8.18;;;6.93;;
41061;SDS011;26812;42.662;23.352;2022-08-04T07:33:35;8.07;;;6.38;;
41061;SDS011;26812;42.662;23.352;2022-08-04T07:36:01;7.63;;;6.60;;
41061;SDS011;26812;42.662;23.352;2022-08-04T07:38:39;8.80;;;7.90;;
41061;SDS011;26812;42.662;23.352;2022-08-04T07:41:24;9.35;;;8.35;;
41061;SDS011;26812;42.662;23.352;2022-08-04T07:43:49;9.90;;;7.07;;
41061;SDS011;26812;42.662;23.352;2022-08-04T07:46:15;8.13;;;6.97;;
41061;SDS011;26812;42.662;23.352;2022-08-04T07:48:41;7.43;;;6.22;;
41061;SDS011;26812;42.662;23.352;2022-08-04T07:51:06;9.68;;;6.70;;
41061;SDS011;26812;42.662;23.352;2022-08-04T07:53:32;8.65;;;6.65;;
41061;SDS011;26812;42.662;23.352;2022-08-04T07:55:58;7.47;;;5.57;;
41061;SDS011;26812;42.662;23.352;2022-08-04T07:58:25;6.95;;;6.25;;
41061;SDS011;26812;42.662;23.352;2022-08-04T08:00:52;6.93;;;5.47;;
41061;SDS011;26812;42.662;23.352;2022-08-04T08:03:18;6.32;;;5.70;;
41061;SDS011;26812;42.662;23.352;2022-08-04T08:05:44;7.10;;;6.43;;
41061;SDS011;26812;42.662;23.352;2022-08-04T08:08:10;8.95;;;6.97;;
41061;SDS011;26812;42.662;23.352;2022-08-04T08:10:35;8.50;;;6.22;;
41061;SDS011;26812;42.662;23.352;2022-08-04T08:13:02;6.95;;;5.90;;
41061;SDS011;26812;42.662;23.352;2022-08-04T08:15:28;10.13;;;6.30;;
41061;SDS011;26812;42.662;23.352;2022-08-04T08:17:55;10.70;;;6.22;;
41061;SDS011;26812;42.662;23.352;2022-08-04T08:20:20;6.32;;;5.70;;
41061;SDS011;26812;42.662;23.352;2022-08-04T08:22:46;8.48;;;6.57;;
41061;SDS011;26812;42.662;23.352;2022-08-04T08:25:11;7.15;;;6.20;;
41061;SDS011;26812;42.662;23.352;2022-08-04T08:27:37;5.93;;;5.40;;
41061;SDS011;26812;42.662;23.352;2022-08-04T08:30:03;7.32;;;5.63;;
41061;SDS011;26812;42.662;23.352;2022-08-04T08:32:30;7.35;;;5.20;;
41061;SDS011;26812;42.662;23.352;2022-08-04T08:34:55;8.48;;;6.82;;
41061;SDS011;26812;42.662;23.352;2022-08-04T08:51:21;5.97;;;5.15;;
41061;SDS011;26812;42.662;23.352;2022-08-04T09:00:00;4.82;;;4.40;;
41061;SDS011;26812;42.662;23.352;2022-08-04T09:02:33;7.38;;;6.05;;
41061;SDS011;26812;42.662;23.352;2022-08-04T09:10:51;6.10;;;4.47;;
41061;SDS011;26812;42.662;23.352;2022-08-04T09:16:37;6.32;;;4.80;;
41061;SDS011;26812;42.662;23.352;2022-08-04T09:19:11;4.72;;;3.85;;
41061;SDS011;26812;42.662;23.352;2022-08-04T09:21:50;4.80;;;4.40;;
41061;SDS011;26812;42.662;23.352;2022-08-04T09:25:30;8.48;;;4.32;;
41061;SDS011;26812;42.662;23.352;2022-08-04T09:30:06;4.50;;;4.10;;
41061;SDS011;26812;42.662;23.352;2022-08-04T09:40:49;11.10;;;5.65;;
41061;SDS011;26812;42.662;23.352;2022-08-04T09:46:32;15.23;;;8.63;;
41061;SDS011;26812;42.662;23.352;2022-08-04T09:49:09;4.07;;;3.35;;
41061;SDS011;26812;42.662;23.352;2022-08-04T09:59:52;18.67;;;8.27;;
41061;SDS011;26812;42.662;23.352;2022-08-04T10:02:18;11.75;;;7.82;;
41061;SDS011;26812;42.662;23.352;2022-08-04T10:04:46;8.10;;;4.43;;
41061;SDS011;26812;42.662;23.352;2022-08-04T10:07:17;6.32;;;4.50;;
41061;SDS011;26812;42.662;23.352;2022-08-04T10:15:09;7.47;;;4.28;;
41061;SDS011;26812;42.662;23.352;2022-08-04T10:25:52;4.22;;;3.45;;
41061;SDS011;26812;42.662;23.352;2022-08-04T10:28:42;3.63;;;3.33;;
41061;SDS011;26812;42.662;23.352;2022-08-04T10:31:12;3.55;;;3.13;;
41061;SDS011;26812;42.662;23.352;2022-08-04T10:33:48;3.63;;;3.30;;
41061;SDS011;26812;42.662;23.352;2022-08-04T10:36:18;3.30;;;3.00;;
41061;SDS011;26812;42.662;23.352;2022-08-04T10:41:29;3.97;;;3.33;;
41061;SDS011;26812;42.662;23.352;2022-08-04T10:44:19;4.22;;;3.67;;
41061;SDS011;26812;42.662;23.352;2022-08-04T10:47:10;4.63;;;3.22;;
41061;SDS011;26812;42.662;23.352;2022-08-04T10:49:47;6.13;;;3.28;;
41061;SDS011;26812;42.662;23.352;2022-08-04T10:52:33;3.90;;;3.45;;
41061;SDS011;26812;42.662;23.352;2022-08-04T10:57:43;3.33;;;2.88;;
41061;SDS011;26812;42.662;23.352;2022-08-04T11:00:13;6.00;;;3.28;;
41061;SDS011;26812;42.662;23.352;2022-08-04T11:05:44;3.55;;;3.13;;
41061;SDS011;26812;42.662;23.352;2022-08-04T11:08:41;3.30;;;3.00;;
41061;SDS011;26812;42.662;23.352;2022-08-04T11:14:19;3.60;;;3.00;;
41061;SDS011;26812;42.662;23.352;2022-08-04T11:17:14;3.10;;;2.90;;
41061;SDS011;26812;42.662;23.352;2022-08-04T11:22:09;3.25;;;2.88;;
41061;SDS011;26812;42.662;23.352;2022-08-04T11:27:18;4.55;;;2.85;;
41061;SDS011;26812;42.662;23.352;2022-08-04T11:32:36;2.70;;;2.10;;
41061;SDS011;26812;42.662;23.352;2022-08-04T11:35:11;4.10;;;2.83;;
41061;SDS011;26812;42.662;23.352;2022-08-04T11:40:20;2.72;;;2.53;;
41061;SDS011;26812;42.662;23.352;2022-08-04T11:42:51;4.22;;;3.20;;
41061;SDS011;26812;42.662;23.352;2022-08-04T11:45:23;3.13;;;2.83;;
41061;SDS011;26812;42.662;23.352;2022-08-04T11:48:30;2.97;;;2.65;;
41061;SDS011;26812;42.662;23.352;2022-08-04T11:50:51;3.80;;;2.65;;
41061;SDS011;26812;42.662;23.352;2022-08-04T11:53:19;3.80;;;2.42;;
41061;SDS011;26812;42.662;23.352;2022-08-04T11:55:51;2.40;;;2.20;;
41061;SDS011;26812;42.662;23.352;2022-08-04T11:58:21;2.55;;;2.35;;
41061;SDS011;26812;42.662;23.352;2022-08-04T12:01:03;3.42;;;2.60;;
41061;SDS011;26812;42.662;23.352;2022-08-04T12:06:19;2.72;;;2.53;;
41061;SDS011;26812;42.662;23.352;2022-08-04T12:17:08;3.13;;;2.28;;
41061;SDS011;26812;42.662;23.352;2022-08-04T12:19:38;3.30;;;2.50;;
41061;SDS011;26812;42.662;23.352;2022-08-04T12:22:10;2.78;;;2.45;;
41061;SDS011;26812;42.662;23.352;2022-08-04T12:24:42;2.90;;;2.70;;
41061;SDS011;26812;42.662;23.352;2022-08-04T12:27:15;2.90;;;2.70;;
41061;SDS011;26812;42.662;23.352;2022-08-04T12:29:44;2.60;;;2.40;;
41061;SDS011;26812;42.662;23.352;2022-08-04T12:41:00;3.15;;;2.83;;
41061;SDS011;26812;42.662;23.352;2022-08-04T12:43:43;5.35;;;2.40;;
41061;SDS011;26812;42.662;23.352;2022-08-04T12:46:12;4.15;;;2.65;;
41061;SDS011;26812;42.662;23.352;2022-08-04T12:48:49;2.70;;;2.50;;
41061;SDS011;26812;42.662;23.352;2022-08-04T12:51:16;2.88;;;2.67;;
41061;SDS011;26812;42.662;23.352;2022-08-04T12:53:42;4.70;;;2.55;;
41061;SDS011;26812;42.662;23.352;2022-08-04T12:56:09;2.83;;;2.63;;
41061;SDS011;26812;42.662;23.352;2022-08-04T12:58:40;2.92;;;2.63;;
41061;SDS011;26812;42.662;23.352;2022-08-04T13:01:11;3.22;;;2.20;;
41061;SDS011;26812;42.662;23.352;2022-08-04T13:03:42;3.38;;;3.00;;
41061;SDS011;26812;42.662;23.352;2022-08-04T13:06:14;4.65;;;2.75;;
41061;SDS011;26812;42.662;23.352;2022-08-04T13:08:41;3.72;;;2.58;;
41061;SDS011;26812;42.662;23.352;2022-08-04T13:11:09;3.55;;;2.63;;
41061;SDS011;26812;42.662;23.352;2022-08-04T13:13:36;3.17;;;2.50;;
41061;SDS011;26812;42.662;23.352;2022-08-04T13:16:04;3.25;;;2.95;;
41061;SDS011;26812;42.662;23.352;2022-08-04T13:18:33;3.85;;;3.53;;
41061;SDS011;26812;42.662;23.352;2022-08-04T13:23:35;3.83;;;2.83;;
41061;SDS011;26812;42.662;23.352;2022-08-04T13:26:02;3.50;;;3.13;;
41061;SDS011;26812;42.662;23.352;2022-08-04T13:28:29;2.80;;;2.60;;
41061;SDS011;26812;42.662;23.352;2022-08-04T13:30:58;3.25;;;2.95;;
41061;SDS011;26812;42.662;23.352;2022-08-04T13:33:33;2.90;;;2.70;;
41061;SDS011;26812;42.662;23.352;2022-08-04T13:36:01;3.47;;;2.60;;
41061;SDS011;26812;42.662;23.352;2022-08-04T13:38:28;2.97;;;2.30;;
41061;SDS011;26812;42.662;23.352;2022-08-04T13:40:56;2.75;;;2.55;;
41061;SDS011;26812;42.662;23.352;2022-08-04T13:43:26;3.55;;;2.22;;
41061;SDS011;26812;42.662;23.352;2022-08-04T13:46:00;2.65;;;2.45;;
41061;SDS011;26812;42.662;23.352;2022-08-04T13:50:57;2.40;;;2.20;;
41061;SDS011;26812;42.662;23.352;2022-08-04T13:53:30;2.72;;;2.53;;
41061;SDS011;26812;42.662;23.352;2022-08-04T13:56:02;2.65;;;2.45;;
41061;SDS011;26812;42.662;23.352;2022-08-04T13:58:30;3.72;;;2.30;;
41061;SDS011;26812;42.662;23.352;2022-08-04T14:06:24;3.10;;;2.90;;
41061;SDS011;26812;42.662;23.352;2022-08-04T14:08:54;2.95;;;2.40;;
41061;SDS011;26812;42.662;23.352;2022-08-04T14:11:21;2.97;;;2.72;;
41061;SDS011;26812;42.662;23.352;2022-08-04T14:13:58;4.50;;;2.47;;
41061;SDS011;26812;42.662;23.352;2022-08-04T14:16:24;2.72;;;2.53;;
41061;SDS011;26812;42.662;23.352;2022-08-04T14:18:57;2.90;;;2.70;;
41061;SDS011;26812;42.662;23.352;2022-08-04T14:21:25;3.00;;;2.70;;
41061;SDS011;26812;42.662;23.352;2022-08-04T14:28:46;2.90;;;2.70;;
41061;SDS011;26812;42.662;23.352;2022-08-04T14:31:15;3.28;;;2.97;;
41061;SDS011;26812;42.662;23.352;2022-08-04T14:33:43;4.65;;;2.90;;
41061;SDS011;26812;42.662;23.352;2022-08-04T14:36:10;4.22;;;2.80;;
41061;SDS011;26812;42.662;23.352;2022-08-04T14:38:41;3.15;;;2.55;;
41061;SDS011;26812;42.662;23.352;2022-08-04T14:41:06;3.97;;;2.75;;
41061;SDS011;26812;42.662;23.352;2022-08-04T14:43:31;2.92;;;2.58;;
41061;SDS011;26812;42.662;23.352;2022-08-04T14:46:05;5.30;;;2.78;;
41061;SDS011;26812;42.662;23.352;2022-08-04T14:48:31;3.58;;;3.00;;
41061;SDS011;26812;42.662;23.352;2022-08-04T14:50:57;3.00;;;2.70;;
41061;SDS011;26812;42.662;23.352;2022-08-04T14:53:23;4.55;;;3.22;;
41061;SDS011;26812;42.662;23.352;2022-08-04T14:55:57;3.92;;;3.35;;
41061;SDS011;26812;42.662;23.352;2022-08-04T15:00:50;4.03;;;2.92;;
41061;SDS011;26812;42.662;23.352;2022-08-04T15:03:18;4.38;;;3.13;;
41061;SDS011;26812;42.662;23.352;2022-08-04T15:05:45;5.35;;;4.30;;
41061;SDS011;26812;42.662;23.352;2022-08-04T15:08:12;3.28;;;2.92;;
41061;SDS011;26812;42.662;23.352;2022-08-04T15:10:39;3.70;;;3.30;;
41061;SDS011;26812;42.662;23.352;2022-08-04T15:13:05;3.35;;;3.05;;
41061;SDS011;26812;42.662;23.352;2022-08-04T15:15:31;4.75;;;3.15;;
41061;SDS011;26812;42.662;23.352;2022-08-04T15:17:57;3.50;;;2.72;;
41061;SDS011;26812;42.662;23.352;2022-08-04T15:20:23;3.22;;;2.92;;
41061;SDS011;26812;42.662;23.352;2022-08-04T15:22:49;3.42;;;3.13;;
41061;SDS011;26812;42.662;23.352;2022-08-04T15:25:14;3.90;;;3.20;;
41061;SDS011;26812;42.662;23.352;2022-08-04T15:27:41;3.33;;;2.95;;
41061;SDS011;26812;42.662;23.352;2022-08-04T15:30:10;6.32;;;4.68;;
41061;SDS011;26812;42.662;23.352;2022-08-04T15:32:39;6.50;;;5.05;;
41061;SDS011;26812;42.662;23.352;2022-08-04T15:35:12;4.53;;;3.33;;
41061;SDS011;26812;42.662;23.352;2022-08-04T15:37:48;3.22;;;3.03;;
41061;SDS011;26812;42.662;23.352;2022-08-04T15:43:22;4.93;;;4.40;;
41061;SDS011;26812;42.662;23.352;2022-08-04T15:46:00;4.75;;;3.45;;
41061;SDS011;26812;42.662;23.352;2022-08-04T15:48:29;5.90;;;3.53;;
41061;SDS011;26812;42.662;23.352;2022-08-04T15:53:26;3.55;;;3.25;;
41061;SDS011;26812;42.662;23.352;2022-08-04T15:55:53;4.10;;;3.55;;
41061;SDS011;26812;42.662;23.352;2022-08-04T15:58:19;3.38;;;3.05;;
41061;SDS011;26812;42.662;23.352;2022-08-04T16:16:29;5.68;;;5.18;;
41061;SDS011;26812;42.662;23.352;2022-08-04T16:19:09;5.22;;;4.20;;
41061;SDS011;26812;42.662;23.352;2022-08-04T16:21:47;3.83;;;3.42;;
41061;SDS011;26812;42.662;23.352;2022-08-04T16:26:46;3.38;;;3.08;;
41061;SDS011;26812;42.662;23.352;2022-08-04T16:34:31;4.45;;;3.40;;
41061;SDS011;26812;42.662;23.352;2022-08-04T16:37:14;4.55;;;3.47;;
41061;SDS011;26812;42.662;23.352;2022-08-04T16:39:42;3.85;;;3.45;;
41061;SDS011;26812;42.662;23.352;2022-08-04T16:50:16;6.00;;;3.40;;
41061;SDS011;26812;42.662;23.352;2022-08-04T16:52:47;3.42;;;3.15;;
41061;SDS011;26812;42.662;23.352;2022-08-04T16:55:17;2.95;;;2.70;;
41061;SDS011;26812;42.662;23.352;2022-08-04T16:57:47;5.53;;;3.30;;
41061;SDS011;26812;42.662;23.352;2022-08-04T17:00:13;3.65;;;3.20;;
41061;SDS011;26812;42.662;23.352;2022-08-04T17:02:39;3.75;;;3.38;;
41061;SDS011;26812;42.662;23.352;2022-08-04T17:05:18;4.93;;;3.60;;
41061;SDS011;26812;42.662;23.352;2022-08-04T17:07:48;3.58;;;3.28;;
41061;SDS011;26812;42.662;23.352;2022-08-04T17:10:15;4.35;;;2.90;;
41061;SDS011;26812;42.662;23.352;2022-08-04T17:12:40;3.90;;;3.10;;
41061;SDS011;26812;42.662;23.352;2022-08-04T17:15:18;3.50;;;3.20;;
41061;SDS011;26812;42.662;23.352;2022-08-04T17:17:44;3.33;;;3.03;;
41061;SDS011;26812;42.662;23.352;2022-08-04T17:20:10;7.35;;;3.20;;
41061;SDS011;26812;42.662;23.352;2022-08-04T17:22:35;4.07;;;3.70;;
41061;SDS011;26812;42.662;23.352;2022-08-04T17:25:01;5.53;;;3.58;;
41061;SDS011;26812;42.662;23.352;2022-08-04T17:27:27;3.47;;;3.17;;
41061;SDS011;26812;42.662;23.352;2022-08-04T17:29:52;4.63;;;3.95;;
41061;SDS011;26812;42.662;23.352;2022-08-04T17:32:18;6.25;;;3.13;;
41061;SDS011;26812;42.662;23.352;2022-08-04T17:34:47;3.75;;;3.45;;
41061;SDS011;26812;42.662;23.352;2022-08-04T17:37:24;4.65;;;3.40;;
41061;SDS011;26812;42.662;23.352;2022-08-04T17:39:50;3.75;;;3.40;;
41061;SDS011;26812;42.662;23.352;2022-08-04T17:42:28;4.18;;;3.60;;
41061;SDS011;26812;42.662;23.352;2022-08-04T17:45:09;5.70;;;3.90;;
41061;SDS011;26812;42.662;23.352;2022-08-04T17:47:49;4.28;;;3.88;;
41061;SDS011;26812;42.662;23.352;2022-08-04T17:50:25;6.57;;;3.90;;
41061;SDS011;26812;42.662;23.352;2022-08-04T17:52:59;4.30;;;3.90;;
41061;SDS011;26812;42.662;23.352;2022-08-04T17:55:35;3.95;;;3.65;;
41061;SDS011;26812;42.662;23.352;2022-08-04T17:58:18;4.90;;;4.40;;
41061;SDS011;26812;42.662;23.352;2022-08-04T18:00:46;6.95;;;5.30;;
41061;SDS011;26812;42.662;23.352;2022-08-04T18:03:32;7.72;;;5.55;;
41061;SDS011;26812;42.662;23.352;2022-08-04T18:06:09;6.57;;;5.45;;
41061;SDS011;26812;42.662;23.352;2022-08-04T18:08:36;5.82;;;5.05;;
41061;SDS011;26812;42.662;23.352;2022-08-04T18:11:01;6.97;;;5.38;;
41061;SDS011;26812;42.662;23.352;2022-08-04T18:13:27;5.63;;;4.32;;
41061;SDS011;26812;42.662;23.352;2022-08-04T18:16:05;8.02;;;4.57;;
41061;SDS011;26812;42.662;23.352;2022-08-04T18:18:30;5.20;;;4.68;;
41061;SDS011;26812;42.662;23.352;2022-08-04T18:20:56;6.40;;;4.40;;
41061;SDS011;26812;42.662;23.352;2022-08-04T18:23:25;7.07;;;5.13;;
41061;SDS011;26812;42.662;23.352;2022-08-04T18:25:50;5.10;;;4.50;;
41061;SDS011;26812;42.662;23.352;2022-08-04T18:28:15;9.15;;;4.68;;
41061;SDS011;26812;42.662;23.352;2022-08-04T18:30:41;7.30;;;4.43;;
41061;SDS011;26812;42.662;23.352;2022-08-04T18:33:06;5.22;;;4.65;;
41061;SDS011;26812;42.662;23.352;2022-08-04T18:35:32;6.68;;;4.78;;
41061;SDS011;26812;42.662;23.352;2022-08-04T18:38:00;11.10;;;5.50;;
41061;SDS011;26812;42.662;23.352;2022-08-04T18:40:26;9.60;;;6.57;;
41061;SDS011;26812;42.662;23.352;2022-08-04T18:42:52;6.85;;;5.30;;
41061;SDS011;26812;42.662;23.352;2022-08-04T18:45:18;5.93;;;5.18;;
41061;SDS011;26812;42.662;23.352;2022-08-04T18:47:44;9.02;;;5.78;;
41061;SDS011;26812;42.662;23.352;2022-08-04T18:50:09;9.82;;;6.07;;
41061;SDS011;26812;42.662;23.352;2022-08-04T18:52:35;7.97;;;5.78;;
41061;SDS011;26812;42.662;23.352;2022-08-04T18:55:01;10.18;;;7.00;;
41061;SDS011;26812;42.662;23.352;2022-08-04T18:57:27;8.65;;;5.90;;
41061;SDS011;26812;42.662;23.352;2022-08-04T18:59:54;11.65;;;8.77;;
41061;SDS011;26812;42.662;23.352;2022-08-04T19:02:21;10.63;;;7.55;;
41061;SDS011;26812;42.662;23.352;2022-08-04T19:04:47;7.32;;;5.72;;
41061;SDS011;26812;42.662;23.352;2022-08-04T19:07:13;6.55;;;5.57;;
41061;SDS011;26812;42.662;23.352;2022-08-04T19:09:39;6.78;;;5.60;;
41061;SDS011;26812;42.662;23.352;2022-08-04T19:12:05;7.40;;;5.40;;
41061;SDS011;26812;42.662;23.352;2022-08-04T19:14:31;7.75;;;5.60;;
41061;SDS011;26812;42.662;23.352;2022-08-04T19:16:57;11.43;;;6.55;;
41061;SDS011;26812;42.662;23.352;2022-08-04T19:19:22;7.63;;;6.10;;
41061;SDS011;26812;42.662;23.352;2022-08-04T19:21:48;8.88;;;6.70;;
41061;SDS011;26812;42.662;23.352;2022-08-04T19:24:14;7.40;;;6.30;;
41061;SDS011;26812;42.662;23.352;2022-08-04T19:26:40;9.38;;;6.25;;
41061;SDS011;26812;42.662;23.352;2022-08-04T19:29:05;7.75;;;6.10;;
41061;SDS011;26812;42.662;23.352;2022-08-04T19:31:31;12.98;;;8.85;;
41061;SDS011;26812;42.662;23.352;2022-08-04T19:33:57;8.55;;;6.22;;
41061;SDS011;26812;42.662;23.352;2022-08-04T19:36:23;8.20;;;6.20;;
41061;SDS011;26812;42.662;23.352;2022-08-04T19:38:51;8.63;;;7.18;;
41061;SDS011;26812;42.662;23.352;2022-08-04T19:41:17;9.23;;;5.82;;
41061;SDS011;26812;42.662;23.352;2022-08-04T19:43:43;7.97;;;5.90;;
41061;SDS011;26812;42.662;23.352;2022-08-04T19:46:10;7.70;;;6.65;;
41061;SDS011;26812;42.662;23.352;2022-08-04T19:48:36;10.20;;;6.43;;
41061;SDS011;26812;42.662;23.352;2022-08-04T19:51:01;12.00;;;6.13;;
41061;SDS011;26812;42.662;23.352;2022-08-04T19:53:26;7.70;;;6.03;;
41061;SDS011;26812;42.662;23.352;2022-08-04T19:55:52;10.55;;;6.20;;
41061;SDS011;26812;42.662;23.352;2022-08-04T19:58:17;10.13;;;6.40;;
41061;SDS011;26812;42.662;23.352;2022-08-04T20:00:46;8.13;;;7.32;;
41061;SDS011;26812;42.662;23.352;2022-08-04T20:03:11;10.73;;;7.40;;
41061;SDS011;26812;42.662;23.352;2022-08-04T20:05:41;8.25;;;6.68;;
41061;SDS011;26812;42.662;23.352;2022-08-04T20:08:08;8.25;;;7.35;;
41061;SDS011;26812;42.662;23.352;2022-08-04T20:10:34;8.80;;;6.75;;